Главная страница
METAR-TAF:

METAR-TAF

Аэропорты :

Констанца, Румыния

широта: 44-20N, долгота: 028-26E, высота над уровнем моря: 97 м

Текущие метеонаблюдения

Эта сводка был подготовлена 34 минут назад, в 06:00 UTC
Ветер 6 Узел от северо-западный
Температура 25°C
Влажность 57%
Давление 1010 hPa
Видимость 10 км и более
Нет облачности ниже 1500 м, и нет кучево-дождевой облачности

METAR: LRCK 210600Z 31006KT CAVOK 25/16 Q1010 NOSIG

Время: 09:34 (06:34 UTC)

Прогноз

Эта сводка был подготовлена 1 час и 34 минут назад, в 05:00 UTC
Прогноз действительный с 21-го 06 UTC до 22-го 06 UTC
Ветер 12 Узел от западно-северо-западный
Видимость 10 км и более
Нет облачности ниже 1500 м, и нет кучево-дождевой облачности
временами
С 21-го 22 UTC до 22-го 04 UTC
Ветер 20 Узел от западно-северо-западный с порывами до 30 Узел

TAF: LRCK 210500Z 2106/2206 30012KT CAVOK TEMPO 2122/2204 30020G30KT

Метеонаблюдения и прогнозы для более 4000 аэропортов (сводки METAR и TAF).

Имеющиеся станции представлены на карте желтыми и красными точками.

Чтобы увидеть название станции, наведите на нее мышь.

Затем щелкните, чтобы увидеть метеонаблюдения и метеопрогнозы.

Управление картой: чтобы увеличить масштаб, щелкните зеленые кнопки с черным крестиком; чтобы уменьшить масштаб, щелкните зеленую кнопку с тире; для просмотра соседних карт щелкайте зеленые стрелки.


METAR-TAF: